createdAt,value
2023-01-10T00:29:42.805Z,1003.79
2023-01-10T00:30:23.178Z,1003.87
2023-01-10T00:31:03.712Z,1003.86
2023-01-10T00:31:44.181Z,1003.9
2023-01-10T00:32:24.685Z,1003.93
2023-01-10T00:33:05.190Z,1003.92
2023-01-10T00:33:45.664Z,1003.94
2023-01-10T00:34:26.157Z,1003.95
2023-01-10T00:35:06.651Z,1003.94
2023-01-10T00:35:47.149Z,1003.95
2023-01-10T00:36:27.684Z,1003.9
2023-01-10T00:37:08.166Z,1003.97
2023-01-10T00:37:48.640Z,1004.01
2023-01-10T00:38:29.137Z,1004.01
2023-01-10T00:39:09.647Z,1004.04
2023-01-10T00:39:50.118Z,1004.06
2023-01-10T00:40:30.573Z,1004.09
2023-01-10T00:41:11.075Z,1004.09
2023-01-10T00:41:51.583Z,1004.13
2023-01-10T00:42:32.109Z,1004.16
2023-01-10T00:43:12.629Z,1004.19
2023-01-10T00:43:53.141Z,1004.17
2023-01-10T00:44:33.656Z,1004.13
2023-01-10T00:45:14.178Z,1004.16
2023-01-10T00:45:54.662Z,1004.14
2023-01-10T00:46:35.157Z,1004.19
2023-01-10T00:47:15.599Z,1004.19
2023-01-10T00:47:56.111Z,1004.21
2023-01-10T00:48:36.695Z,1004.16
2023-01-10T00:49:17.091Z,1004.19
2023-01-10T00:49:57.627Z,1004.2
2023-01-10T00:50:38.077Z,1004.23
2023-01-10T00:51:18.579Z,1004.23
2023-01-10T00:51:59.073Z,1004.22
2023-01-10T00:52:39.583Z,1004.22
2023-01-10T00:53:20.123Z,1004.27
2023-01-10T00:54:00.632Z,1004.34
2023-01-10T00:54:41.120Z,1004.38
2023-01-10T00:55:21.614Z,1004.34
2023-01-10T00:56:02.122Z,1004.36
2023-01-10T00:56:42.609Z,1004.38
2023-01-10T00:57:23.119Z,1004.4
2023-01-10T00:58:03.638Z,1004.39
2023-01-10T00:58:44.112Z,1004.45
2023-01-10T00:59:24.575Z,1004.47
2023-01-10T01:02:38.794Z,1004.6
2023-01-10T01:03:19.133Z,1004.61
2023-01-10T01:03:59.636Z,1004.64
2023-01-10T01:04:40.136Z,1004.61
2023-01-10T01:05:20.650Z,1004.65
2023-01-10T01:06:01.111Z,1004.65
2023-01-10T01:06:41.601Z,1004.65
2023-01-10T01:07:22.104Z,1004.6
2023-01-10T01:08:02.613Z,1004.62
2023-01-10T01:08:43.103Z,1004.62
2023-01-10T01:09:23.625Z,1004.67
2023-01-10T01:10:04.076Z,1004.66
2023-01-10T01:10:44.586Z,1004.66
2023-01-10T01:11:25.102Z,1004.67
2023-01-10T01:12:46.113Z,1004.74
2023-01-10T01:13:26.586Z,1004.76
2023-01-10T01:14:07.112Z,1004.78
2023-01-10T01:14:47.639Z,1004.78
2023-01-10T01:15:28.164Z,1004.77
2023-01-10T01:16:08.676Z,1004.81
2023-01-10T01:16:49.128Z,1004.84
2023-01-10T01:17:29.602Z,1004.83
2023-01-10T01:18:10.154Z,1004.88
2023-01-10T01:18:50.649Z,1004.9
2023-01-10T01:19:31.168Z,1004.89
2023-01-10T01:20:11.722Z,1004.89
2023-01-10T01:20:52.201Z,1004.87
2023-01-10T01:21:32.735Z,1004.92
2023-01-10T01:22:13.285Z,1004.93
2023-01-10T01:22:53.706Z,1004.91
2023-01-10T01:23:34.235Z,1004.92
2023-01-10T01:24:14.750Z,1004.91
2023-01-10T01:24:55.262Z,1005
2023-01-10T01:25:35.787Z,1005.01
2023-01-10T01:26:16.371Z,1004.98
2023-01-10T01:26:56.808Z,1005.06
2023-01-10T01:27:37.303Z,1005.05
2023-01-10T01:28:17.822Z,1005.04
2023-01-10T01:28:58.321Z,1005.04
2023-01-10T01:29:43.220Z,1005.05
2023-01-10T01:30:19.283Z,1005.04
2023-01-10T01:30:59.812Z,1005.07
2023-01-10T01:31:40.235Z,1005.04
2023-01-10T01:32:20.792Z,1005.06
2023-01-10T01:33:01.301Z,1005.08
2023-01-10T01:33:41.830Z,1005.11
2023-01-10T01:34:22.317Z,1005.12
2023-01-10T01:35:02.811Z,1005.17
2023-01-10T01:35:43.379Z,1005.16
2023-01-10T01:36:23.759Z,1005.18
2023-01-10T01:37:04.250Z,1005.21
2023-01-10T01:37:44.751Z,1005.2
2023-01-10T01:38:25.246Z,1005.21
2023-01-10T01:39:05.690Z,1005.24
2023-01-10T01:39:46.175Z,1005.25
2023-01-10T01:40:26.685Z,1005.22
2023-01-10T01:41:07.157Z,1005.28
2023-01-10T01:41:47.677Z,1005.3
2023-01-10T01:42:28.193Z,1005.3
2023-01-10T01:43:08.673Z,1005.3
2023-01-10T01:43:49.172Z,1005.35
2023-01-10T01:44:29.672Z,1005.35
2023-01-10T01:45:10.129Z,1005.36
2023-01-10T01:45:50.621Z,1005.36
2023-01-10T01:46:31.110Z,1005.39
2023-01-10T01:47:11.599Z,1005.38
2023-01-10T01:47:52.138Z,1005.41
2023-01-10T01:48:32.676Z,1005.38
2023-01-10T01:49:13.141Z,1005.42
2023-01-10T01:49:53.610Z,1005.44
2023-01-10T01:50:34.103Z,1005.48
2023-01-10T01:51:14.568Z,1005.47
2023-01-10T01:51:55.061Z,1005.5
2023-01-10T01:52:35.608Z,1005.5
2023-01-10T01:53:16.075Z,1005.52
2023-01-10T01:53:56.607Z,1005.53
2023-01-10T01:54:37.084Z,1005.54
2023-01-10T01:55:17.680Z,1005.53
2023-01-10T01:55:58.135Z,1005.56
2023-01-10T01:56:38.671Z,1005.57
2023-01-10T01:57:19.125Z,1005.53
2023-01-10T01:57:59.708Z,1005.53
2023-01-10T01:58:40.160Z,1005.51
2023-01-10T01:59:20.673Z,1005.49
2023-01-10T02:00:01.149Z,1005.53
2023-01-10T02:00:41.658Z,1005.46
2023-01-10T02:01:22.255Z,1005.53
2023-01-10T02:02:02.709Z,1005.55
2023-01-10T02:03:23.683Z,1005.54
2023-01-10T02:04:04.158Z,1005.56
2023-01-10T02:04:44.625Z,1005.56
2023-01-10T02:05:25.129Z,1005.56
2023-01-10T02:06:05.563Z,1005.58
2023-01-10T02:06:46.083Z,1005.63
2023-01-10T02:07:26.542Z,1005.64
2023-01-10T02:08:07.030Z,1005.59
2023-01-10T02:08:47.503Z,1005.59
2023-01-10T02:09:28.035Z,1005.58
2023-01-10T02:10:08.503Z,1005.62
2023-01-10T02:10:49.019Z,1005.63
2023-01-10T02:11:29.541Z,1005.61
2023-01-10T02:12:10.030Z,1005.65
2023-01-10T02:12:50.560Z,1005.61
2023-01-10T02:13:31.054Z,1005.66
2023-01-10T02:14:11.525Z,1005.65
2023-01-10T02:14:52.010Z,1005.73
2023-01-10T02:16:13.045Z,1005.71
2023-01-10T02:16:53.452Z,1005.76
2023-01-10T02:17:33.935Z,1005.75
2023-01-10T02:18:14.440Z,1005.82
2023-01-10T02:18:54.956Z,1005.76
2023-01-10T02:19:35.423Z,1005.77
2023-01-10T02:20:15.945Z,1005.81
2023-01-10T02:20:56.445Z,1005.81
2023-01-10T02:21:36.967Z,1005.8
2023-01-10T02:22:17.485Z,1005.81
2023-01-10T02:22:57.992Z,1005.81
2023-01-10T02:23:38.445Z,1005.86
2023-01-10T02:24:18.907Z,1005.8
2023-01-10T02:24:59.410Z,1005.83
2023-01-10T02:25:39.910Z,1005.85
2023-01-10T02:26:20.376Z,1005.83
2023-01-10T02:27:00.907Z,1005.82
2023-01-10T02:27:41.403Z,1005.86
2023-01-10T02:28:21.865Z,1005.82
2023-01-10T02:29:02.411Z,1005.8
2023-01-10T02:29:42.867Z,1005.82
2023-01-10T02:30:23.346Z,1005.81
2023-01-10T02:31:03.825Z,1005.86
2023-01-10T02:31:44.284Z,1005.84
2023-01-10T02:32:40.577Z,1005.86
2023-01-10T02:33:05.785Z,1005.84
2023-01-10T02:33:45.786Z,1005.87
2023-01-10T02:34:26.317Z,1005.88
2023-01-10T02:35:06.806Z,1005.85
2023-01-10T02:35:47.363Z,1005.84
2023-01-10T02:36:27.865Z,1005.87
2023-01-10T02:37:08.298Z,1005.88
2023-01-10T02:37:48.814Z,1005.87
2023-01-10T02:38:29.331Z,1005.85
2023-01-10T02:39:09.859Z,1005.87
2023-01-10T02:39:50.336Z,1005.86
2023-01-10T02:40:30.801Z,1005.86
2023-01-10T02:41:11.337Z,1005.88
2023-01-10T02:41:51.864Z,1005.87
2023-01-10T02:42:32.381Z,1005.85
2023-01-10T02:43:12.892Z,1005.86
2023-01-10T02:43:53.359Z,1005.92
2023-01-10T02:44:33.863Z,1005.91
2023-01-10T02:45:14.394Z,1005.87
2023-01-10T02:45:54.918Z,1005.84
2023-01-10T02:46:35.452Z,1005.87
2023-01-10T02:47:15.930Z,1005.84
2023-01-10T02:47:56.559Z,1005.85
2023-01-10T02:48:37.092Z,1005.85
2023-01-10T02:49:17.593Z,1005.85
2023-01-10T02:49:58.112Z,1005.79
2023-01-10T02:50:38.607Z,1005.82
2023-01-10T02:51:19.115Z,1005.81
2023-01-10T02:51:59.533Z,1005.8
2023-01-10T02:52:40.026Z,1005.87
2023-01-10T02:53:20.532Z,1005.88
2023-01-10T02:54:01.027Z,1005.88
2023-01-10T02:54:41.564Z,1005.9
2023-01-10T02:55:22.006Z,1005.94
2023-01-10T02:56:02.574Z,1005.94
2023-01-10T02:56:43.002Z,1005.89
2023-01-10T02:57:23.475Z,1005.91
2023-01-10T02:58:03.994Z,1005.92
2023-01-10T02:58:44.506Z,1005.9
2023-01-10T03:00:42.154Z,1005.87
2023-01-10T03:01:22.711Z,1005.87
2023-01-10T03:02:03.164Z,1005.92
2023-01-10T03:02:43.583Z,1005.93
2023-01-10T03:03:24.055Z,1005.91
2023-01-10T03:04:04.523Z,1005.91
2023-01-10T03:04:45.078Z,1005.98
2023-01-10T03:05:25.563Z,1005.92
2023-01-10T03:06:06.031Z,1005.97
2023-01-10T03:06:46.557Z,1005.96
2023-01-10T03:07:27.023Z,1005.97
2023-01-10T03:08:07.517Z,1006.02
2023-01-10T03:08:48.028Z,1006.04
2023-01-10T03:09:28.499Z,1005.96
2023-01-10T03:10:08.954Z,1006.08
2023-01-10T03:10:49.476Z,1006.07
2023-01-10T03:11:29.907Z,1006.11
2023-01-10T03:13:43.102Z,1006.09
2023-01-10T03:14:24.166Z,1006.11
2023-01-10T03:15:05.167Z,1006.16
2023-01-10T03:15:46.334Z,1006.16
2023-01-10T03:16:27.524Z,1006.17
2023-01-10T03:17:09.071Z,1006.19
2023-01-10T03:17:50.116Z,1006.15
2023-01-10T03:18:31.170Z,1006.2
2023-01-10T03:19:12.159Z,1006.2
2023-01-10T03:19:53.162Z,1006.2
2023-01-10T03:20:34.158Z,1006.21
2023-01-10T03:21:15.147Z,1006.23
2023-01-10T03:21:56.243Z,1006.23
2023-01-10T03:22:37.285Z,1006.19
2023-01-10T03:23:18.258Z,1006.18
2023-01-10T03:23:59.316Z,1006.17
2023-01-10T03:24:40.449Z,1006.17
2023-01-10T03:25:21.403Z,1006.17
2023-01-10T03:26:02.378Z,1006.16
2023-01-10T03:26:43.354Z,1006.15
2023-01-10T03:27:24.392Z,1006.14
2023-01-10T03:28:05.350Z,1006.18
2023-01-10T03:28:46.473Z,1006.18
2023-01-10T03:29:27.476Z,1006.19
2023-01-10T03:30:08.500Z,1006.21
2023-01-10T03:30:49.594Z,1006.25
2023-01-10T03:31:30.697Z,1006.25
2023-01-10T03:32:11.563Z,1006.24
2023-01-10T03:32:52.553Z,1006.29
2023-01-10T03:33:33.553Z,1006.28
2023-01-10T03:34:14.531Z,1006.29
2023-01-10T03:34:55.526Z,1006.27
2023-01-10T03:35:36.522Z,1006.27
2023-01-10T03:36:17.610Z,1006.3
2023-01-10T03:36:58.659Z,1006.29
2023-01-10T03:37:39.734Z,1006.3
2023-01-10T03:38:20.782Z,1006.38
2023-01-10T03:39:01.718Z,1006.4
2023-01-10T03:39:42.721Z,1006.42
2023-01-10T03:40:23.714Z,1006.4
2023-01-10T03:41:04.717Z,1006.42
2023-01-10T03:41:45.746Z,1006.37
2023-01-10T03:45:15.251Z,1006.5
2023-01-10T03:45:55.674Z,1006.53
2023-01-10T03:46:36.204Z,1006.54
2023-01-10T03:47:16.759Z,1006.58
2023-01-10T03:47:57.312Z,1006.64
2023-01-10T03:48:37.810Z,1006.61
2023-01-10T03:49:18.329Z,1006.63
2023-01-10T03:49:58.880Z,1006.68
2023-01-10T03:50:39.426Z,1006.65
2023-01-10T03:51:19.905Z,1006.7
2023-01-10T03:52:00.418Z,1006.7
2023-01-10T03:52:40.927Z,1006.72
2023-01-10T03:53:21.355Z,1006.74
2023-01-10T03:54:01.850Z,1006.79
2023-01-10T03:54:42.388Z,1006.76
2023-01-10T03:55:22.945Z,1006.76
2023-01-10T03:56:03.489Z,1006.78
2023-01-10T03:56:43.968Z,1006.79
2023-01-10T03:57:24.522Z,1006.78
2023-01-10T03:58:04.922Z,1006.82
2023-01-10T03:58:45.441Z,1006.86
2023-01-10T03:59:25.913Z,1006.86
2023-01-10T04:00:06.465Z,1006.85
2023-01-10T04:00:46.990Z,1006.9
2023-01-10T04:01:27.538Z,1006.89
2023-01-10T04:02:08.025Z,1006.89
2023-01-10T04:02:48.385Z,1006.92
2023-01-10T04:03:28.892Z,1006.88
2023-01-10T04:04:09.427Z,1006.89
2023-01-10T04:04:49.858Z,1006.92
2023-01-10T04:05:30.352Z,1006.88
2023-01-10T04:06:10.853Z,1006.91
2023-01-10T04:07:32.073Z,1006.9
2023-01-10T04:08:12.579Z,1006.91
2023-01-10T04:08:53.114Z,1006.97
2023-01-10T04:09:33.598Z,1006.97
2023-01-10T04:10:14.149Z,1006.99
2023-01-10T04:10:54.655Z,1006.97
2023-01-10T04:11:35.114Z,1006.99
2023-01-10T04:12:15.614Z,1007.04
2023-01-10T04:12:56.131Z,1007.04
2023-01-10T04:13:36.633Z,1007.02
2023-01-10T04:14:17.118Z,1007.04
2023-01-10T04:14:57.594Z,1007.01
2023-01-10T04:15:38.114Z,1007.08
2023-01-10T04:16:18.652Z,1007.04
2023-01-10T04:16:59.087Z,1007.04
2023-01-10T04:17:39.617Z,1007.03
2023-01-10T04:18:20.159Z,1007.03
2023-01-10T04:19:00.598Z,1007.04
2023-01-10T04:19:41.095Z,1007.08
2023-01-10T04:20:21.593Z,1007.09
2023-01-10T04:21:02.127Z,1007.09
2023-01-10T04:21:42.629Z,1007.07
2023-01-10T04:22:23.137Z,1007.08
2023-01-10T04:23:03.653Z,1007.07
2023-01-10T04:23:44.158Z,1007.1
2023-01-10T04:25:05.235Z,1007.15
2023-01-10T04:25:45.754Z,1007.09
2023-01-10T04:26:26.239Z,1007.13
2023-01-10T04:27:06.760Z,1007.19
2023-01-10T04:27:47.251Z,1007.2
2023-01-10T04:28:27.761Z,1007.19
2023-01-10T04:29:08.244Z,1007.19
2023-01-10T04:29:48.794Z,1007.2
2023-01-10T04:30:29.335Z,1007.26
2023-01-10T04:31:09.817Z,1007.23
2023-01-10T04:31:50.390Z,1007.23
2023-01-10T04:32:30.914Z,1007.27
2023-01-10T04:33:11.334Z,1007.2
2023-01-10T04:33:51.864Z,1007.26
2023-01-10T04:34:32.388Z,1007.22
2023-01-10T04:35:12.875Z,1007.22
2023-01-10T04:35:53.373Z,1007.21
2023-01-10T04:36:33.862Z,1007.24
2023-01-10T04:37:14.417Z,1007.23
2023-01-10T04:37:54.855Z,1007.23
2023-01-10T04:38:35.357Z,1007.22
2023-01-10T04:39:15.882Z,1007.23
2023-01-10T04:39:56.437Z,1007.21
2023-01-10T04:40:36.930Z,1007.22
2023-01-10T04:41:17.473Z,1007.27
2023-01-10T04:42:38.437Z,1007.26
2023-01-10T04:43:18.929Z,1007.3
2023-01-10T04:43:59.435Z,1007.31
2023-01-10T04:44:39.949Z,1007.31
2023-01-10T04:45:20.433Z,1007.31
2023-01-10T04:46:00.979Z,1007.27
2023-01-10T04:46:41.464Z,1007.32
2023-01-10T04:47:21.941Z,1007.37
2023-01-10T04:48:02.444Z,1007.35
2023-01-10T04:48:42.967Z,1007.37
2023-01-10T04:50:04.041Z,1007.33
2023-01-10T04:53:02.826Z,1007.37
2023-01-10T04:53:43.196Z,1007.38
2023-01-10T04:54:23.761Z,1007.36
2023-01-10T04:55:04.315Z,1007.39
2023-01-10T04:55:44.801Z,1007.37
2023-01-10T04:56:25.344Z,1007.39
2023-01-10T04:57:05.850Z,1007.41
2023-01-10T04:57:46.387Z,1007.43
2023-01-10T04:58:26.830Z,1007.44
2023-01-10T04:59:07.404Z,1007.47
2023-01-10T04:59:47.885Z,1007.46
2023-01-10T05:00:28.467Z,1007.46
2023-01-10T05:01:08.976Z,1007.44
2023-01-10T05:01:49.532Z,1007.43
2023-01-10T05:02:31.036Z,1007.45
2023-01-10T05:03:11.510Z,1007.44
2023-01-10T05:03:51.999Z,1007.53
2023-01-10T05:04:32.515Z,1007.48
2023-01-10T05:05:13.095Z,1007.49
2023-01-10T05:05:53.630Z,1007.48
2023-01-10T05:06:34.192Z,1007.5
2023-01-10T05:07:14.640Z,1007.49
2023-01-10T05:07:55.188Z,1007.48
2023-01-10T05:08:35.712Z,1007.52
2023-01-10T05:09:16.285Z,1007.47
2023-01-10T05:09:57.066Z,1007.49
2023-01-10T05:10:37.547Z,1007.5
2023-01-10T05:11:18.055Z,1007.45
2023-01-10T05:11:58.560Z,1007.49
2023-01-10T05:12:39.111Z,1007.48
2023-01-10T05:13:19.718Z,1007.52
2023-01-10T05:14:00.233Z,1007.49
2023-01-10T05:14:40.812Z,1007.5
2023-01-10T05:15:21.443Z,1007.49
2023-01-10T05:16:01.902Z,1007.54
2023-01-10T05:16:42.473Z,1007.54
2023-01-10T05:17:22.987Z,1007.53
2023-01-10T05:18:03.505Z,1007.55
2023-01-10T05:18:43.988Z,1007.54
2023-01-10T05:19:24.680Z,1007.53
2023-01-10T05:20:05.208Z,1007.55
2023-01-10T05:20:45.778Z,1007.58
2023-01-10T05:21:26.171Z,1007.59
2023-01-10T05:22:47.239Z,1007.54
2023-01-10T05:23:28.255Z,1007.61
2023-01-10T05:24:08.643Z,1007.56
2023-01-10T05:24:49.206Z,1007.53
2023-01-10T05:25:29.689Z,1007.57
2023-01-10T05:26:11.040Z,1007.56
2023-01-10T05:26:51.523Z,1007.55
2023-01-10T05:27:32.083Z,1007.55
2023-01-10T05:28:12.531Z,1007.53
2023-01-10T05:28:53.056Z,1007.55
2023-01-10T05:29:33.760Z,1007.53
2023-01-10T05:30:14.606Z,1007.53
2023-01-10T05:30:55.152Z,1007.54
2023-01-10T05:31:35.678Z,1007.55
2023-01-10T05:32:16.156Z,1007.58
2023-01-10T05:32:58.200Z,1007.58
2023-01-10T05:33:38.749Z,1007.62
2023-01-10T05:34:20.062Z,1007.62
2023-01-10T05:35:00.562Z,1007.66
2023-01-10T05:35:41.159Z,1007.66
2023-01-10T05:36:21.675Z,1007.68
2023-01-10T05:37:13.846Z,1007.67
2023-01-10T05:37:55.120Z,1007.65
2023-01-10T05:38:36.419Z,1007.63
2023-01-10T05:39:16.897Z,1007.63
2023-01-10T05:39:57.432Z,1007.68
2023-01-10T05:40:37.925Z,1007.66
2023-01-10T05:41:18.540Z,1007.68
2023-01-10T05:41:58.984Z,1007.7
2023-01-10T05:42:39.515Z,1007.65
2023-01-10T05:43:21.002Z,1007.63
2023-01-10T05:44:01.489Z,1007.67
2023-01-10T05:44:42.557Z,1007.61
2023-01-10T05:47:56.843Z,1007.51
2023-01-10T05:48:38.351Z,1007.53
2023-01-10T05:49:18.831Z,1007.54
2023-01-10T05:49:59.336Z,1007.52
2023-01-10T05:50:39.886Z,1007.52
2023-01-10T05:51:21.209Z,1007.5
2023-01-10T05:52:01.841Z,1007.54
2023-01-10T05:52:42.819Z,1007.57
2023-01-10T06:32:20.516Z,1008.33
2023-01-10T06:33:00.768Z,1008.32
2023-01-10T06:33:42.126Z,1008.15
2023-01-10T06:34:22.880Z,1008.37
2023-01-10T06:35:03.229Z,1008.39
2023-01-10T06:35:43.778Z,1008.39
2023-01-10T06:38:58.082Z,1008.46
2023-01-10T06:39:38.187Z,1008.47
2023-01-10T06:40:19.672Z,1008.46
2023-01-10T06:41:00.114Z,1008.44
2023-01-10T06:41:40.651Z,1008.45
2023-01-10T06:42:21.245Z,1008.49
2023-01-10T06:43:01.813Z,1008.45
2023-01-10T06:43:42.355Z,1008.45
2023-01-10T06:44:22.883Z,1008.39
2023-01-10T06:45:03.381Z,1008.4
2023-01-10T06:45:43.951Z,1008.43
2023-01-10T06:46:24.550Z,1008.45
2023-01-10T06:47:05.016Z,1008.4
2023-01-10T06:47:45.535Z,1008.48
2023-01-10T06:48:26.011Z,1008.49
2023-01-10T06:49:06.570Z,1008.46
2023-01-10T06:49:47.698Z,1008.51
2023-01-10T06:54:49.777Z,1008.6
2023-01-10T06:55:30.274Z,1008.28
2023-01-10T06:56:11.063Z,1008.6
2023-01-10T06:59:25.335Z,1008.65
2023-01-10T07:00:05.621Z,1008.67
2023-01-10T07:00:47.020Z,1008.69
2023-01-10T07:01:27.449Z,1008.74
2023-01-10T07:02:07.970Z,1008.69
2023-01-10T07:04:49.102Z,1008.81
2023-01-10T07:05:29.456Z,1008.78
2023-01-10T07:06:09.949Z,1008.76
2023-01-10T07:06:50.909Z,1008.75
2023-01-10T07:09:31.175Z,1008.74
2023-01-10T07:10:11.813Z,1008.73
2023-01-10T07:10:52.733Z,1008.73
2023-01-10T07:11:33.606Z,1008.77
2023-01-10T07:12:14.363Z,1008.79
2023-01-10T07:12:55.109Z,1008.8
2023-01-10T07:13:35.387Z,1008.79
2023-01-10T07:14:16.081Z,1008.79
2023-01-10T07:14:56.623Z,1008.81
2023-01-10T07:15:37.630Z,1008.75
2023-01-10T07:16:18.165Z,1008.77
2023-01-10T07:16:58.874Z,1008.81
2023-01-10T07:17:39.548Z,1008.86
2023-01-10T07:18:20.389Z,1008.84
2023-01-10T07:19:01.196Z,1008.83
2023-01-10T07:19:41.532Z,1008.89
2023-01-10T07:20:22.189Z,1008.88
2023-01-10T07:21:02.837Z,1008.86
2023-01-10T07:21:43.402Z,1008.81
2023-01-10T07:22:25.118Z,1008.84
2023-01-10T07:23:47.683Z,1008.84
2023-01-10T07:24:29.270Z,1008.86
2023-01-10T07:25:10.873Z,1008.89
2023-01-10T07:25:53.084Z,1008.9
2023-01-10T07:26:34.637Z,1008.89
2023-01-10T07:27:15.275Z,1008.86
2023-01-10T07:27:55.851Z,1008.87
2023-01-10T07:28:37.218Z,1008.9
2023-01-10T07:29:58.014Z,1008.91
2023-01-10T07:30:38.779Z,1008.94
2023-01-10T07:31:19.461Z,1008.97
2023-01-10T07:32:01.193Z,1008.96
2023-01-10T07:32:42.455Z,1008.99
2023-01-10T07:33:23.981Z,1009.01
2023-01-10T07:34:04.506Z,1009.03
2023-01-10T07:34:46.163Z,1009.01
2023-01-10T07:35:27.787Z,1008.99
2023-01-10T07:36:08.836Z,1009.02
2023-01-10T07:36:49.637Z,1009.04
2023-01-10T07:37:30.321Z,1009.02
2023-01-10T07:38:10.785Z,1009.04
2023-01-10T07:38:51.710Z,1009.01
2023-01-10T07:39:51.536Z,1009.07
2023-01-10T07:40:33.526Z,1009.09
2023-01-10T07:41:15.820Z,1009.11
2023-01-10T07:41:56.990Z,1009.12
2023-01-10T07:42:38.017Z,1009.13
2023-01-10T07:43:18.944Z,1009.14
2023-01-10T07:44:00.703Z,1009.17
2023-01-10T07:44:41.227Z,1009.21
2023-01-10T07:45:22.304Z,1009.2
2023-01-10T07:46:03.091Z,1009.14
2023-01-10T07:46:43.884Z,1009.17
2023-01-10T07:47:24.314Z,1009.18
2023-01-10T07:48:04.824Z,1009.21
2023-01-10T07:51:35.475Z,1009.24
2023-01-10T07:56:47.681Z,1009.4
2023-01-10T07:57:28.123Z,1009.35
2023-01-10T07:58:08.738Z,1009.42
2023-01-10T07:58:51.264Z,1009.4
2023-01-10T07:59:35.023Z,1009.44
2023-01-10T08:00:17.931Z,1009.45
2023-01-10T08:00:56.393Z,1009.41
2023-01-10T08:01:38.046Z,1009.4
2023-01-10T08:02:18.844Z,1009.38
2023-01-10T08:02:59.607Z,1009.35
2023-01-10T08:03:42.167Z,1009.37
2023-01-10T08:04:22.997Z,1009.41
2023-01-10T08:05:05.409Z,1009.39
2023-01-10T08:05:46.873Z,1009.45
2023-01-10T08:06:27.959Z,1009.47
2023-01-10T08:07:10.056Z,1009.46
2023-01-10T08:07:50.593Z,1009.5
2023-01-10T08:08:31.145Z,1009.54
2023-01-10T08:09:12.651Z,1009.57
2023-01-10T08:09:54.079Z,1009.55
2023-01-10T08:10:34.551Z,1009.56
2023-01-10T08:11:15.330Z,1009.57
2023-01-10T08:11:56.216Z,1009.55
2023-01-10T08:16:15.950Z,1009.67
2023-01-10T08:16:56.663Z,1009.69
2023-01-10T08:17:37.151Z,1009.68
2023-01-10T08:18:18.582Z,1009.67
2023-01-10T08:18:59.267Z,1009.65
2023-01-10T08:19:39.837Z,1009.66
2023-01-10T08:21:01.007Z,1009.69
2023-01-10T08:21:41.558Z,1009.7
2023-01-10T08:22:22.162Z,1009.69
2023-01-10T08:23:02.887Z,1009.7
2023-01-10T08:23:44.052Z,1009.75
2023-01-10T08:24:25.076Z,1009.68
2023-01-10T08:25:05.456Z,1009.67
2023-01-10T08:26:27.049Z,1009.77
2023-01-10T08:27:07.544Z,1009.75
2023-01-10T08:30:25.543Z,1009.73
2023-01-10T08:31:05.063Z,1009.71
2023-01-10T08:31:45.739Z,1009.72
2023-01-10T08:32:26.339Z,1009.7
2023-01-10T08:33:08.119Z,1009.71
2023-01-10T08:33:49.994Z,1009.72
2023-01-10T08:34:30.888Z,1009.76
2023-01-10T08:35:11.990Z,1009.74
2023-01-10T08:35:54.067Z,1009.81
2023-01-10T08:36:35.392Z,1009.81
2023-01-10T08:37:15.232Z,1009.82
2023-01-10T08:37:55.922Z,1009.84
2023-01-10T08:38:36.793Z,1009.84
2023-01-10T08:39:58.848Z,1009.84
2023-01-10T08:42:58.015Z,1009.79
2023-01-10T08:43:38.755Z,1009.82
2023-01-10T08:44:19.787Z,1009.8
2023-01-10T08:45:02.597Z,1009.8
2023-01-10T08:45:43.824Z,1009.77
2023-01-10T08:46:25.705Z,1009.79
2023-01-10T08:47:07.289Z,1009.81
2023-01-10T08:47:52.077Z,1009.86
2023-01-10T08:48:33.269Z,1009.81
2023-01-10T08:51:14.869Z,1009.86
2023-01-10T08:51:55.108Z,1009.84
2023-01-10T08:52:35.915Z,1009.9
2023-01-10T08:53:17.135Z,1009.84
2023-01-10T08:53:57.772Z,1009.87
2023-01-10T08:54:38.420Z,1009.91
2023-01-10T08:55:19.840Z,1009.91
2023-01-10T08:56:00.703Z,1009.96
2023-01-10T08:59:43.816Z,1010.01
2023-01-10T09:03:08.355Z,1010
2023-01-10T09:03:49.317Z,1010.04
2023-01-10T09:04:32.770Z,1010.05
2023-01-10T09:05:22.073Z,1010.07
2023-01-10T09:05:51.573Z,1010.03
2023-01-10T09:09:10.917Z,1010.03
2023-01-10T09:09:51.472Z,1010
2023-01-10T09:10:31.985Z,1009.98
2023-01-10T09:11:13.219Z,1010.02
2023-01-10T09:11:53.895Z,1009.99
2023-01-10T09:12:35.096Z,1010.01
2023-01-10T09:13:15.639Z,1010.02
2023-01-10T09:13:56.389Z,1009.99
2023-01-10T09:14:36.949Z,1010.01
2023-01-10T09:15:17.650Z,1010
2023-01-10T09:15:58.447Z,1010.05
2023-01-10T09:16:39.163Z,1010.03
2023-01-10T09:17:19.798Z,1009.96
2023-01-10T09:18:00.631Z,1010
2023-01-10T09:18:42.420Z,1010.01
2023-01-10T09:19:24.894Z,1010.04
2023-01-10T09:20:05.451Z,1010.03
2023-01-10T09:20:46.141Z,1010.09
2023-01-10T09:21:26.704Z,1010.07
2023-01-10T09:22:07.424Z,1010.06
2023-01-10T09:22:48.273Z,1010.07
2023-01-10T09:23:28.709Z,1010.09
2023-01-10T09:24:09.323Z,1010.12
2023-01-10T09:24:49.915Z,1010.08
2023-01-10T09:25:30.524Z,1010.12
2023-01-10T09:26:10.985Z,1010.09
2023-01-10T09:26:51.685Z,1010.07
2023-01-10T09:27:32.312Z,1010.1
2023-01-10T09:28:12.854Z,1010.11
2023-01-10T09:28:53.411Z,1010.13
2023-01-10T09:29:34.906Z,1010.12
2023-01-10T09:30:15.768Z,1010.09
2023-01-10T09:30:56.397Z,1010.07
2023-01-10T09:31:37.058Z,1010.06
2023-01-10T09:32:17.766Z,1010.06
2023-01-10T09:32:58.403Z,1010.01
2023-01-10T09:33:46.585Z,1010.05
2023-01-10T09:34:19.369Z,1010.04
2023-01-10T09:35:00.145Z,1010.03
2023-01-10T09:35:40.976Z,1010.01
2023-01-10T09:36:21.616Z,1010.07
2023-01-10T09:37:02.604Z,1010.03
2023-01-10T09:38:23.882Z,1010.03
2023-01-10T09:39:04.363Z,1010.04
2023-01-10T09:39:45.037Z,1010.03
2023-01-10T09:40:25.541Z,1010.03
2023-01-10T09:41:06.102Z,1010.08
2023-01-10T09:41:46.817Z,1010.12
2023-01-10T09:42:27.382Z,1010.13
2023-01-10T09:43:07.947Z,1010.12
2023-01-10T09:43:48.512Z,1010.08
2023-01-10T09:44:28.954Z,1010.04
2023-01-10T09:45:09.510Z,1010.01
2023-01-10T09:45:50.120Z,1010.07
2023-01-10T09:46:30.710Z,1010.1
2023-01-10T09:47:21.938Z,1010.13
2023-01-10T09:47:51.886Z,1010.13
2023-01-10T09:48:32.522Z,1010.12
2023-01-10T09:49:13.174Z,1010.16
2023-01-10T09:49:53.782Z,1010.1
2023-01-10T09:50:34.967Z,1010.15
2023-01-10T09:53:49.834Z,1010.12
2023-01-10T09:54:30.428Z,1010.14
2023-01-10T09:55:12.105Z,1010.13
2023-01-10T09:55:53.301Z,1010.15
2023-01-10T09:56:34.399Z,1010.15
2023-01-10T09:57:15.707Z,1010.14
2023-01-10T09:57:56.732Z,1010.14
2023-01-10T09:58:37.939Z,1010.15
2023-01-10T09:59:18.949Z,1010.12
2023-01-10T10:02:34.846Z,1010.17
2023-01-10T10:03:15.369Z,1010.15
2023-01-10T10:03:56.033Z,1010.15
2023-01-10T10:07:55.238Z,1010.08
2023-01-10T10:08:35.681Z,1010.07
2023-01-10T10:09:16.580Z,1010.04
2023-01-10T10:09:57.907Z,1010
2023-01-10T10:10:38.418Z,1010.02
2023-01-10T10:11:19.153Z,1009.98
2023-01-10T10:12:40.331Z,1010
2023-01-10T10:13:27.345Z,1009.99
2023-01-10T10:14:01.504Z,1009.97
2023-01-10T10:14:42.224Z,1009.96
2023-01-10T10:15:22.872Z,1009.98
2023-01-10T10:16:03.389Z,1009.94
2023-01-10T10:16:43.896Z,1009.94
2023-01-10T10:20:20.562Z,1009.93
2023-01-10T10:21:01.024Z,1009.89
2023-01-10T10:24:31.698Z,1009.86
2023-01-10T10:25:12.171Z,1009.87
2023-01-10T10:25:52.850Z,1009.87
2023-01-10T10:26:33.731Z,1009.87
2023-01-10T10:27:14.370Z,1009.88
2023-01-10T10:27:54.854Z,1009.92
2023-01-10T10:28:37.315Z,1009.93
2023-01-10T10:29:16.220Z,1009.91
2023-01-10T10:29:57.465Z,1009.91
2023-01-10T10:30:38.726Z,1009.87
2023-01-10T10:31:19.222Z,1009.88
2023-01-10T10:31:59.707Z,1009.89
2023-01-10T10:32:40.199Z,1009.9
2023-01-10T10:33:20.969Z,1009.89
2023-01-10T10:34:01.692Z,1009.85
2023-01-10T10:34:42.320Z,1009.85
2023-01-10T10:35:22.923Z,1009.89
2023-01-10T10:36:03.477Z,1009.88
2023-01-10T10:36:47.680Z,1009.85
2023-01-10T10:37:35.967Z,1009.86
2023-01-10T10:38:16.605Z,1009.83
2023-01-10T10:38:57.119Z,1009.87
2023-01-10T10:39:37.687Z,1009.92
2023-01-10T10:40:18.240Z,1009.91